Terminal Aerodrome Forecast
Issued by NWS

Home | Current Version | Previous Version | Text Only | Print | Product List | Glossary On
Versions: 1 2 3 4 5 6 7 8 9 10 11 12 13
000
FTUS42 KTBW 041948 AAA
TAFPIE
TAF AMD
KPIE 041948Z 0420/0518 VRB05KT P6SM VCTS SCT030CB BKN250
     FM042200 32006KT P6SM SCT040 BKN250
     FM050300 VRB04KT P6SM SCT035 SCT250
     FM051200 VRB04KT P6SM VCTS SCT030CB SCT250=

USA.gov is the U.S. government's official web portal to all federal, state and local government web resources and services.